Weather at Skogn Flyplass

Public forecast

Using degrees Celsius for public forecast. Weather courtesy of forecast.io.

Closest aviation weather report (METAR) to Skogn Flyplass

Closest report is Trondheim Airport, Værnes, 16.4 nm (30.4 km) SSW.

2024/05/20 00:20 (retrieved 21 minutes ago)

ENVA 200020Z AUTO 12009KT 9999 NCD 02/00 Q1022 RMK WIND 670FT 16008KT

Closest aviation forecast (TAF) to Skogn Flyplass

Closest forecast is Cape Dorset Airport, 2,127.1 nm (3,939.4 km) NW.

2024/05/19 19:42 (retrieved 5 hours ago)

TAF TAF CYTE 191840Z 1919/2007 07012KT P6SM SKC RMK FCST BASED ON OBS BY OTHER SRCS NXT FCST BY 200100Z